sensor_id;sensor_type;location;lat;lon;timestamp;P1;durP1;ratioP1;P2;durP2;ratioP2
18224;SDS011;9237;48.590;8.854;2022-10-31T00:00:05;0.80;;;0.80;;
18224;SDS011;9237;48.590;8.854;2022-10-31T00:02:34;0.80;;;0.80;;
18224;SDS011;9237;48.590;8.854;2022-10-31T00:05:01;0.80;;;0.80;;
18224;SDS011;9237;48.590;8.854;2022-10-31T00:07:28;0.80;;;0.80;;
18224;SDS011;9237;48.590;8.854;2022-10-31T00:09:55;0.80;;;0.80;;
18224;SDS011;9237;48.590;8.854;2022-10-31T00:12:21;0.80;;;0.80;;
18224;SDS011;9237;48.590;8.854;2022-10-31T00:14:48;0.70;;;0.70;;
18224;SDS011;9237;48.590;8.854;2022-10-31T00:17:15;0.70;;;0.70;;
18224;SDS011;9237;48.590;8.854;2022-10-31T00:19:43;0.80;;;0.80;;
18224;SDS011;9237;48.590;8.854;2022-10-31T00:22:10;0.77;;;0.77;;
18224;SDS011;9237;48.590;8.854;2022-10-31T00:24:37;0.80;;;0.80;;
18224;SDS011;9237;48.590;8.854;2022-10-31T00:27:04;0.70;;;0.70;;
18224;SDS011;9237;48.590;8.854;2022-10-31T00:29:30;0.80;;;0.80;;
18224;SDS011;9237;48.590;8.854;2022-10-31T00:31:57;0.80;;;0.80;;
18224;SDS011;9237;48.590;8.854;2022-10-31T00:34:24;0.70;;;0.70;;
18224;SDS011;9237;48.590;8.854;2022-10-31T00:36:52;0.80;;;0.80;;
18224;SDS011;9237;48.590;8.854;2022-10-31T00:39:19;0.80;;;0.80;;
18224;SDS011;9237;48.590;8.854;2022-10-31T00:41:46;0.80;;;0.80;;
18224;SDS011;9237;48.590;8.854;2022-10-31T00:44:12;0.90;;;0.90;;
18224;SDS011;9237;48.590;8.854;2022-10-31T00:46:39;0.80;;;0.80;;
18224;SDS011;9237;48.590;8.854;2022-10-31T00:49:06;0.80;;;0.80;;
18224;SDS011;9237;48.590;8.854;2022-10-31T00:51:33;0.80;;;0.80;;
18224;SDS011;9237;48.590;8.854;2022-10-31T00:54:01;0.80;;;0.80;;
18224;SDS011;9237;48.590;8.854;2022-10-31T00:56:28;0.80;;;0.80;;
18224;SDS011;9237;48.590;8.854;2022-10-31T00:58:55;0.90;;;0.90;;
18224;SDS011;9237;48.590;8.854;2022-10-31T01:01:22;0.80;;;0.80;;
18224;SDS011;9237;48.590;8.854;2022-10-31T01:03:49;0.80;;;0.80;;
18224;SDS011;9237;48.590;8.854;2022-10-31T01:06:16;0.80;;;0.80;;
18224;SDS011;9237;48.590;8.854;2022-10-31T01:08:43;0.80;;;0.80;;
18224;SDS011;9237;48.590;8.854;2022-10-31T01:11:12;0.80;;;0.80;;
18224;SDS011;9237;48.590;8.854;2022-10-31T01:13:42;0.80;;;0.80;;
18224;SDS011;9237;48.590;8.854;2022-10-31T01:16:11;0.90;;;0.90;;
18224;SDS011;9237;48.590;8.854;2022-10-31T01:18:40;0.80;;;0.80;;
18224;SDS011;9237;48.590;8.854;2022-10-31T01:21:07;0.80;;;0.80;;
18224;SDS011;9237;48.590;8.854;2022-10-31T01:23:35;0.90;;;0.90;;
18224;SDS011;9237;48.590;8.854;2022-10-31T01:26:04;0.80;;;0.80;;
18224;SDS011;9237;48.590;8.854;2022-10-31T01:28:34;0.90;;;0.90;;
18224;SDS011;9237;48.590;8.854;2022-10-31T01:31:02;0.90;;;0.90;;
18224;SDS011;9237;48.590;8.854;2022-10-31T01:33:30;0.90;;;0.90;;
18224;SDS011;9237;48.590;8.854;2022-10-31T01:35:57;0.80;;;0.80;;
18224;SDS011;9237;48.590;8.854;2022-10-31T01:38:24;0.80;;;0.80;;
18224;SDS011;9237;48.590;8.854;2022-10-31T01:40:51;0.90;;;0.90;;
18224;SDS011;9237;48.590;8.854;2022-10-31T01:43:18;0.90;;;0.90;;
18224;SDS011;9237;48.590;8.854;2022-10-31T01:45:48;0.90;;;0.90;;
18224;SDS011;9237;48.590;8.854;2022-10-31T01:48:20;0.80;;;0.80;;
18224;SDS011;9237;48.590;8.854;2022-10-31T01:50:50;0.80;;;0.80;;
18224;SDS011;9237;48.590;8.854;2022-10-31T01:53:20;0.80;;;0.80;;
18224;SDS011;9237;48.590;8.854;2022-10-31T01:55:47;0.90;;;0.90;;
18224;SDS011;9237;48.590;8.854;2022-10-31T01:58:14;0.90;;;0.90;;
18224;SDS011;9237;48.590;8.854;2022-10-31T02:00:45;0.80;;;0.80;;
18224;SDS011;9237;48.590;8.854;2022-10-31T02:03:16;0.80;;;0.80;;
18224;SDS011;9237;48.590;8.854;2022-10-31T02:05:44;0.80;;;0.80;;
18224;SDS011;9237;48.590;8.854;2022-10-31T02:08:12;0.80;;;0.80;;
18224;SDS011;9237;48.590;8.854;2022-10-31T02:10:43;0.87;;;0.87;;
18224;SDS011;9237;48.590;8.854;2022-10-31T02:13:10;0.80;;;0.80;;
18224;SDS011;9237;48.590;8.854;2022-10-31T02:15:39;0.80;;;0.80;;
18224;SDS011;9237;48.590;8.854;2022-10-31T02:18:08;0.90;;;0.90;;
18224;SDS011;9237;48.590;8.854;2022-10-31T02:20:39;0.90;;;0.90;;
18224;SDS011;9237;48.590;8.854;2022-10-31T02:29:12;0.90;;;0.90;;
18224;SDS011;9237;48.590;8.854;2022-10-31T02:31:54;0.80;;;0.80;;
18224;SDS011;9237;48.590;8.854;2022-10-31T02:34:28;0.80;;;0.80;;
18224;SDS011;9237;48.590;8.854;2022-10-31T02:37:05;0.70;;;0.70;;
18224;SDS011;9237;48.590;8.854;2022-10-31T02:39:36;0.70;;;0.70;;
18224;SDS011;9237;48.590;8.854;2022-10-31T02:42:12;0.80;;;0.80;;
18224;SDS011;9237;48.590;8.854;2022-10-31T02:44:44;0.80;;;0.80;;
18224;SDS011;9237;48.590;8.854;2022-10-31T02:47:20;0.70;;;0.70;;
18224;SDS011;9237;48.590;8.854;2022-10-31T02:49:50;0.70;;;0.70;;
18224;SDS011;9237;48.590;8.854;2022-10-31T02:52:24;0.80;;;0.80;;
18224;SDS011;9237;48.590;8.854;2022-10-31T02:54:52;0.90;;;0.90;;
18224;SDS011;9237;48.590;8.854;2022-10-31T02:57:20;0.90;;;0.90;;
18224;SDS011;9237;48.590;8.854;2022-10-31T02:59:51;0.90;;;0.90;;
18224;SDS011;9237;48.590;8.854;2022-10-31T03:02:30;0.90;;;0.90;;
18224;SDS011;9237;48.590;8.854;2022-10-31T03:05:23;0.80;;;0.80;;
18224;SDS011;9237;48.590;8.854;2022-10-31T03:08:01;0.90;;;0.90;;
18224;SDS011;9237;48.590;8.854;2022-10-31T03:10:35;0.90;;;0.90;;
18224;SDS011;9237;48.590;8.854;2022-10-31T03:13:09;0.90;;;0.90;;
18224;SDS011;9237;48.590;8.854;2022-10-31T03:15:42;0.90;;;0.90;;
18224;SDS011;9237;48.590;8.854;2022-10-31T03:18:13;0.80;;;0.80;;
18224;SDS011;9237;48.590;8.854;2022-10-31T03:20:45;0.80;;;0.80;;
18224;SDS011;9237;48.590;8.854;2022-10-31T03:23:16;0.90;;;0.90;;
18224;SDS011;9237;48.590;8.854;2022-10-31T03:25:45;0.90;;;0.90;;
18224;SDS011;9237;48.590;8.854;2022-10-31T03:28:15;0.80;;;0.80;;
18224;SDS011;9237;48.590;8.854;2022-10-31T03:30:44;0.80;;;0.80;;
18224;SDS011;9237;48.590;8.854;2022-10-31T03:33:15;0.80;;;0.80;;
18224;SDS011;9237;48.590;8.854;2022-10-31T03:35:47;0.80;;;0.80;;
18224;SDS011;9237;48.590;8.854;2022-10-31T03:38:17;0.80;;;0.80;;
18224;SDS011;9237;48.590;8.854;2022-10-31T03:40:45;0.90;;;0.90;;
18224;SDS011;9237;48.590;8.854;2022-10-31T03:43:16;0.90;;;0.90;;
18224;SDS011;9237;48.590;8.854;2022-10-31T03:45:46;0.90;;;0.90;;
18224;SDS011;9237;48.590;8.854;2022-10-31T03:48:15;0.70;;;0.70;;
18224;SDS011;9237;48.590;8.854;2022-10-31T03:50:45;0.80;;;0.80;;
18224;SDS011;9237;48.590;8.854;2022-10-31T03:53:22;0.80;;;0.80;;
18224;SDS011;9237;48.590;8.854;2022-10-31T03:55:55;0.80;;;0.80;;
18224;SDS011;9237;48.590;8.854;2022-10-31T03:58:27;0.80;;;0.80;;
18224;SDS011;9237;48.590;8.854;2022-10-31T04:00:59;0.90;;;0.90;;
18224;SDS011;9237;48.590;8.854;2022-10-31T04:03:30;0.80;;;0.80;;
18224;SDS011;9237;48.590;8.854;2022-10-31T04:06:01;0.80;;;0.80;;
18224;SDS011;9237;48.590;8.854;2022-10-31T04:08:32;0.90;;;0.90;;
18224;SDS011;9237;48.590;8.854;2022-10-31T04:11:04;0.80;;;0.80;;
18224;SDS011;9237;48.590;8.854;2022-10-31T04:13:33;0.90;;;0.90;;
18224;SDS011;9237;48.590;8.854;2022-10-31T04:16:01;0.90;;;0.90;;
18224;SDS011;9237;48.590;8.854;2022-10-31T04:18:30;0.80;;;0.80;;
18224;SDS011;9237;48.590;8.854;2022-10-31T04:21:00;0.90;;;0.90;;
18224;SDS011;9237;48.590;8.854;2022-10-31T04:23:28;0.90;;;0.90;;
18224;SDS011;9237;48.590;8.854;2022-10-31T04:25:55;0.90;;;0.90;;
18224;SDS011;9237;48.590;8.854;2022-10-31T04:28:22;0.90;;;0.90;;
18224;SDS011;9237;48.590;8.854;2022-10-31T04:30:49;0.80;;;0.80;;
18224;SDS011;9237;48.590;8.854;2022-10-31T04:33:16;0.80;;;0.80;;
18224;SDS011;9237;48.590;8.854;2022-10-31T04:35:44;0.80;;;0.80;;
18224;SDS011;9237;48.590;8.854;2022-10-31T04:38:12;0.90;;;0.90;;
18224;SDS011;9237;48.590;8.854;2022-10-31T04:40:39;0.90;;;0.90;;
18224;SDS011;9237;48.590;8.854;2022-10-31T04:43:06;0.90;;;0.90;;
18224;SDS011;9237;48.590;8.854;2022-10-31T04:45:32;0.90;;;0.90;;
18224;SDS011;9237;48.590;8.854;2022-10-31T04:47:59;0.80;;;0.80;;
18224;SDS011;9237;48.590;8.854;2022-10-31T04:50:26;0.90;;;0.90;;
18224;SDS011;9237;48.590;8.854;2022-10-31T04:52:54;0.80;;;0.80;;
18224;SDS011;9237;48.590;8.854;2022-10-31T04:55:21;0.90;;;0.90;;
18224;SDS011;9237;48.590;8.854;2022-10-31T04:57:48;0.87;;;0.87;;
18224;SDS011;9237;48.590;8.854;2022-10-31T05:00:16;1.00;;;1.00;;
18224;SDS011;9237;48.590;8.854;2022-10-31T05:02:45;0.70;;;0.70;;
18224;SDS011;9237;48.590;8.854;2022-10-31T05:05:12;0.80;;;0.80;;
18224;SDS011;9237;48.590;8.854;2022-10-31T05:07:40;0.80;;;0.80;;
18224;SDS011;9237;48.590;8.854;2022-10-31T05:10:11;0.80;;;0.80;;
18224;SDS011;9237;48.590;8.854;2022-10-31T05:12:44;0.80;;;0.80;;
18224;SDS011;9237;48.590;8.854;2022-10-31T05:15:12;0.73;;;0.73;;
18224;SDS011;9237;48.590;8.854;2022-10-31T05:17:39;0.90;;;0.90;;
18224;SDS011;9237;48.590;8.854;2022-10-31T05:20:06;0.70;;;0.70;;
18224;SDS011;9237;48.590;8.854;2022-10-31T05:22:33;0.80;;;0.80;;
18224;SDS011;9237;48.590;8.854;2022-10-31T05:25:00;0.80;;;0.80;;
18224;SDS011;9237;48.590;8.854;2022-10-31T05:27:28;0.90;;;0.90;;
18224;SDS011;9237;48.590;8.854;2022-10-31T05:29:55;0.80;;;0.80;;
18224;SDS011;9237;48.590;8.854;2022-10-31T05:32:22;0.83;;;0.83;;
18224;SDS011;9237;48.590;8.854;2022-10-31T05:34:49;0.80;;;0.80;;
18224;SDS011;9237;48.590;8.854;2022-10-31T05:37:15;0.60;;;0.60;;
18224;SDS011;9237;48.590;8.854;2022-10-31T05:39:42;0.80;;;0.80;;
18224;SDS011;9237;48.590;8.854;2022-10-31T05:42:09;1.00;;;1.00;;
18224;SDS011;9237;48.590;8.854;2022-10-31T05:44:37;0.80;;;0.80;;
18224;SDS011;9237;48.590;8.854;2022-10-31T05:47:04;0.83;;;0.83;;
18224;SDS011;9237;48.590;8.854;2022-10-31T05:49:31;0.80;;;0.80;;
18224;SDS011;9237;48.590;8.854;2022-10-31T05:51:58;0.70;;;0.70;;
18224;SDS011;9237;48.590;8.854;2022-10-31T05:54:25;0.70;;;0.70;;
18224;SDS011;9237;48.590;8.854;2022-10-31T05:56:52;0.80;;;0.80;;
18224;SDS011;9237;48.590;8.854;2022-10-31T05:59:18;0.80;;;0.80;;
18224;SDS011;9237;48.590;8.854;2022-10-31T06:01:47;0.90;;;0.90;;
18224;SDS011;9237;48.590;8.854;2022-10-31T06:04:14;0.70;;;0.70;;
18224;SDS011;9237;48.590;8.854;2022-10-31T06:06:41;0.90;;;0.90;;
18224;SDS011;9237;48.590;8.854;2022-10-31T06:09:08;0.70;;;0.70;;
18224;SDS011;9237;48.590;8.854;2022-10-31T06:11:34;0.70;;;0.70;;
18224;SDS011;9237;48.590;8.854;2022-10-31T06:14:01;0.80;;;0.80;;
18224;SDS011;9237;48.590;8.854;2022-10-31T06:16:28;0.80;;;0.80;;
18224;SDS011;9237;48.590;8.854;2022-10-31T06:18:57;0.80;;;0.80;;
18224;SDS011;9237;48.590;8.854;2022-10-31T06:21:24;0.80;;;0.80;;
18224;SDS011;9237;48.590;8.854;2022-10-31T06:23:51;0.70;;;0.70;;
18224;SDS011;9237;48.590;8.854;2022-10-31T06:26:18;0.70;;;0.70;;
18224;SDS011;9237;48.590;8.854;2022-10-31T06:28:44;0.80;;;0.80;;
18224;SDS011;9237;48.590;8.854;2022-10-31T06:31:11;0.80;;;0.80;;
18224;SDS011;9237;48.590;8.854;2022-10-31T06:33:40;0.70;;;0.70;;
18224;SDS011;9237;48.590;8.854;2022-10-31T06:36:09;0.70;;;0.70;;
18224;SDS011;9237;48.590;8.854;2022-10-31T06:38:36;0.80;;;0.80;;
18224;SDS011;9237;48.590;8.854;2022-10-31T06:41:03;0.80;;;0.80;;
18224;SDS011;9237;48.590;8.854;2022-10-31T06:43:30;0.80;;;0.80;;
18224;SDS011;9237;48.590;8.854;2022-10-31T06:45:57;0.80;;;0.80;;
18224;SDS011;9237;48.590;8.854;2022-10-31T06:48:27;0.70;;;0.70;;
18224;SDS011;9237;48.590;8.854;2022-10-31T06:50:56;0.80;;;0.80;;
18224;SDS011;9237;48.590;8.854;2022-10-31T06:56:15;0.80;;;0.80;;
18224;SDS011;9237;48.590;8.854;2022-10-31T06:58:42;0.80;;;0.80;;
18224;SDS011;9237;48.590;8.854;2022-10-31T07:01:09;0.80;;;0.80;;
18224;SDS011;9237;48.590;8.854;2022-10-31T07:03:36;0.80;;;0.80;;
18224;SDS011;9237;48.590;8.854;2022-10-31T07:06:02;0.80;;;0.80;;
18224;SDS011;9237;48.590;8.854;2022-10-31T07:08:29;0.80;;;0.80;;
18224;SDS011;9237;48.590;8.854;2022-10-31T07:10:57;0.80;;;0.80;;
18224;SDS011;9237;48.590;8.854;2022-10-31T07:13:24;0.80;;;0.80;;
18224;SDS011;9237;48.590;8.854;2022-10-31T07:15:51;0.80;;;0.80;;
18224;SDS011;9237;48.590;8.854;2022-10-31T07:18:19;0.70;;;0.70;;
18224;SDS011;9237;48.590;8.854;2022-10-31T07:20:46;0.70;;;0.70;;
18224;SDS011;9237;48.590;8.854;2022-10-31T07:23:13;0.70;;;0.70;;
18224;SDS011;9237;48.590;8.854;2022-10-31T07:25:40;0.70;;;0.70;;
18224;SDS011;9237;48.590;8.854;2022-10-31T07:28:09;0.70;;;0.70;;
18224;SDS011;9237;48.590;8.854;2022-10-31T07:30:36;0.70;;;0.70;;
18224;SDS011;9237;48.590;8.854;2022-10-31T07:33:03;0.70;;;0.70;;
18224;SDS011;9237;48.590;8.854;2022-10-31T07:35:31;0.80;;;0.80;;
18224;SDS011;9237;48.590;8.854;2022-10-31T07:38:06;0.70;;;0.70;;
18224;SDS011;9237;48.590;8.854;2022-10-31T07:40:33;0.70;;;0.70;;
18224;SDS011;9237;48.590;8.854;2022-10-31T07:43:00;0.60;;;0.60;;
18224;SDS011;9237;48.590;8.854;2022-10-31T07:45:28;0.70;;;0.70;;
18224;SDS011;9237;48.590;8.854;2022-10-31T07:47:55;0.80;;;0.80;;
18224;SDS011;9237;48.590;8.854;2022-10-31T07:50:24;0.70;;;0.70;;
18224;SDS011;9237;48.590;8.854;2022-10-31T07:52:58;0.70;;;0.70;;
18224;SDS011;9237;48.590;8.854;2022-10-31T07:55:25;0.80;;;0.80;;
18224;SDS011;9237;48.590;8.854;2022-10-31T07:57:56;0.70;;;0.70;;
18224;SDS011;9237;48.590;8.854;2022-10-31T08:00:24;0.70;;;0.70;;
18224;SDS011;9237;48.590;8.854;2022-10-31T08:02:59;0.70;;;0.70;;
18224;SDS011;9237;48.590;8.854;2022-10-31T08:05:26;0.70;;;0.70;;
18224;SDS011;9237;48.590;8.854;2022-10-31T08:07:53;0.80;;;0.80;;
18224;SDS011;9237;48.590;8.854;2022-10-31T08:10:20;0.80;;;0.80;;
18224;SDS011;9237;48.590;8.854;2022-10-31T08:12:47;0.80;;;0.80;;
18224;SDS011;9237;48.590;8.854;2022-10-31T08:15:20;0.70;;;0.70;;
18224;SDS011;9237;48.590;8.854;2022-10-31T08:17:47;0.70;;;0.70;;
18224;SDS011;9237;48.590;8.854;2022-10-31T08:20:15;0.60;;;0.60;;
18224;SDS011;9237;48.590;8.854;2022-10-31T08:22:42;0.70;;;0.70;;
18224;SDS011;9237;48.590;8.854;2022-10-31T08:25:09;0.70;;;0.70;;
18224;SDS011;9237;48.590;8.854;2022-10-31T08:27:36;0.60;;;0.60;;
18224;SDS011;9237;48.590;8.854;2022-10-31T08:30:03;0.70;;;0.70;;
18224;SDS011;9237;48.590;8.854;2022-10-31T08:32:30;0.70;;;0.70;;
18224;SDS011;9237;48.590;8.854;2022-10-31T08:34:57;0.67;;;0.67;;
18224;SDS011;9237;48.590;8.854;2022-10-31T08:37:25;0.80;;;0.80;;
18224;SDS011;9237;48.590;8.854;2022-10-31T08:39:52;0.70;;;0.70;;
18224;SDS011;9237;48.590;8.854;2022-10-31T08:42:19;0.60;;;0.60;;
18224;SDS011;9237;48.590;8.854;2022-10-31T08:44:46;0.70;;;0.70;;
18224;SDS011;9237;48.590;8.854;2022-10-31T08:47:12;0.70;;;0.70;;
18224;SDS011;9237;48.590;8.854;2022-10-31T08:49:39;0.70;;;0.70;;
18224;SDS011;9237;48.590;8.854;2022-10-31T08:52:06;0.60;;;0.60;;
18224;SDS011;9237;48.590;8.854;2022-10-31T08:54:34;0.70;;;0.70;;
18224;SDS011;9237;48.590;8.854;2022-10-31T08:57:01;0.70;;;0.70;;
18224;SDS011;9237;48.590;8.854;2022-10-31T08:59:28;0.60;;;0.60;;
18224;SDS011;9237;48.590;8.854;2022-10-31T09:01:55;0.70;;;0.70;;
18224;SDS011;9237;48.590;8.854;2022-10-31T09:04:22;0.73;;;0.73;;
18224;SDS011;9237;48.590;8.854;2022-10-31T09:06:48;0.70;;;0.70;;
18224;SDS011;9237;48.590;8.854;2022-10-31T09:09:15;0.60;;;0.60;;
18224;SDS011;9237;48.590;8.854;2022-10-31T09:11:43;0.60;;;0.60;;
18224;SDS011;9237;48.590;8.854;2022-10-31T09:14:10;0.60;;;0.60;;
18224;SDS011;9237;48.590;8.854;2022-10-31T09:16:37;0.60;;;0.60;;
18224;SDS011;9237;48.590;8.854;2022-10-31T09:19:04;0.60;;;0.60;;
18224;SDS011;9237;48.590;8.854;2022-10-31T09:21:30;0.70;;;0.70;;
18224;SDS011;9237;48.590;8.854;2022-10-31T09:23:57;0.60;;;0.60;;
18224;SDS011;9237;48.590;8.854;2022-10-31T09:26:24;0.70;;;0.70;;
18224;SDS011;9237;48.590;8.854;2022-10-31T09:28:52;0.70;;;0.70;;
18224;SDS011;9237;48.590;8.854;2022-10-31T09:31:19;0.67;;;0.67;;
18224;SDS011;9237;48.590;8.854;2022-10-31T09:33:46;0.70;;;0.70;;
18224;SDS011;9237;48.590;8.854;2022-10-31T09:36:12;0.70;;;0.70;;
18224;SDS011;9237;48.590;8.854;2022-10-31T09:38:39;0.70;;;0.70;;
18224;SDS011;9237;48.590;8.854;2022-10-31T09:41:07;0.70;;;0.70;;
18224;SDS011;9237;48.590;8.854;2022-10-31T09:43:48;0.70;;;0.70;;
18224;SDS011;9237;48.590;8.854;2022-10-31T09:46:27;0.70;;;0.70;;
18224;SDS011;9237;48.590;8.854;2022-10-31T09:49:06;0.70;;;0.70;;
18224;SDS011;9237;48.590;8.854;2022-10-31T09:51:48;0.70;;;0.70;;
18224;SDS011;9237;48.590;8.854;2022-10-31T09:54:20;0.70;;;0.70;;
18224;SDS011;9237;48.590;8.854;2022-10-31T09:56:52;0.60;;;0.60;;
18224;SDS011;9237;48.590;8.854;2022-10-31T09:59:24;0.70;;;0.70;;
18224;SDS011;9237;48.590;8.854;2022-10-31T10:01:57;0.70;;;0.70;;
18224;SDS011;9237;48.590;8.854;2022-10-31T10:04:29;0.70;;;0.70;;
18224;SDS011;9237;48.590;8.854;2022-10-31T10:07:02;0.70;;;0.70;;
18224;SDS011;9237;48.590;8.854;2022-10-31T10:09:33;0.70;;;0.70;;
18224;SDS011;9237;48.590;8.854;2022-10-31T10:12:03;0.60;;;0.60;;
18224;SDS011;9237;48.590;8.854;2022-10-31T10:14:39;0.70;;;0.70;;
18224;SDS011;9237;48.590;8.854;2022-10-31T10:17:18;0.70;;;0.70;;
18224;SDS011;9237;48.590;8.854;2022-10-31T10:22:50;0.70;;;0.70;;
18224;SDS011;9237;48.590;8.854;2022-10-31T10:25:23;0.70;;;0.70;;
18224;SDS011;9237;48.590;8.854;2022-10-31T10:28:04;0.70;;;0.70;;
18224;SDS011;9237;48.590;8.854;2022-10-31T10:30:40;0.70;;;0.70;;
18224;SDS011;9237;48.590;8.854;2022-10-31T10:33:11;0.70;;;0.70;;
18224;SDS011;9237;48.590;8.854;2022-10-31T10:35:41;0.70;;;0.70;;
18224;SDS011;9237;48.590;8.854;2022-10-31T10:38:15;0.70;;;0.70;;
18224;SDS011;9237;48.590;8.854;2022-10-31T10:40:46;0.70;;;0.70;;
18224;SDS011;9237;48.590;8.854;2022-10-31T10:43:21;0.60;;;0.60;;
18224;SDS011;9237;48.590;8.854;2022-10-31T10:45:53;0.70;;;0.70;;
18224;SDS011;9237;48.590;8.854;2022-10-31T10:48:46;0.70;;;0.70;;
18224;SDS011;9237;48.590;8.854;2022-10-31T10:51:21;0.70;;;0.70;;
18224;SDS011;9237;48.590;8.854;2022-10-31T10:53:54;0.70;;;0.70;;
18224;SDS011;9237;48.590;8.854;2022-10-31T10:56:40;0.70;;;0.70;;
18224;SDS011;9237;48.590;8.854;2022-10-31T10:59:25;0.70;;;0.70;;
18224;SDS011;9237;48.590;8.854;2022-10-31T11:01:54;0.70;;;0.70;;
18224;SDS011;9237;48.590;8.854;2022-10-31T11:04:27;0.70;;;0.70;;
18224;SDS011;9237;48.590;8.854;2022-10-31T11:06:56;0.70;;;0.70;;
18224;SDS011;9237;48.590;8.854;2022-10-31T11:09:24;0.70;;;0.70;;
18224;SDS011;9237;48.590;8.854;2022-10-31T11:11:51;0.70;;;0.70;;
18224;SDS011;9237;48.590;8.854;2022-10-31T11:14:18;0.70;;;0.70;;
18224;SDS011;9237;48.590;8.854;2022-10-31T11:16:46;0.60;;;0.60;;
18224;SDS011;9237;48.590;8.854;2022-10-31T11:19:16;0.70;;;0.70;;
18224;SDS011;9237;48.590;8.854;2022-10-31T11:21:47;0.70;;;0.70;;
18224;SDS011;9237;48.590;8.854;2022-10-31T11:24:23;0.70;;;0.70;;
18224;SDS011;9237;48.590;8.854;2022-10-31T11:27:02;0.60;;;0.60;;
18224;SDS011;9237;48.590;8.854;2022-10-31T11:29:35;0.60;;;0.60;;
18224;SDS011;9237;48.590;8.854;2022-10-31T11:32:02;0.70;;;0.70;;
18224;SDS011;9237;48.590;8.854;2022-10-31T11:34:30;0.60;;;0.60;;
18224;SDS011;9237;48.590;8.854;2022-10-31T11:37:01;0.60;;;0.60;;
18224;SDS011;9237;48.590;8.854;2022-10-31T11:39:38;0.60;;;0.60;;
18224;SDS011;9237;48.590;8.854;2022-10-31T11:42:07;0.60;;;0.60;;
18224;SDS011;9237;48.590;8.854;2022-10-31T11:44:34;0.67;;;0.67;;
18224;SDS011;9237;48.590;8.854;2022-10-31T11:47:02;0.70;;;0.70;;
18224;SDS011;9237;48.590;8.854;2022-10-31T11:49:32;0.60;;;0.60;;
18224;SDS011;9237;48.590;8.854;2022-10-31T11:52:04;0.60;;;0.60;;
18224;SDS011;9237;48.590;8.854;2022-10-31T11:54:36;0.60;;;0.60;;
18224;SDS011;9237;48.590;8.854;2022-10-31T11:57:21;0.60;;;0.60;;
18224;SDS011;9237;48.590;8.854;2022-10-31T11:59:51;0.60;;;0.60;;
18224;SDS011;9237;48.590;8.854;2022-10-31T12:02:19;0.60;;;0.60;;
18224;SDS011;9237;48.590;8.854;2022-10-31T12:04:47;0.70;;;0.70;;
18224;SDS011;9237;48.590;8.854;2022-10-31T12:07:19;0.60;;;0.60;;
18224;SDS011;9237;48.590;8.854;2022-10-31T12:09:47;0.60;;;0.60;;
18224;SDS011;9237;48.590;8.854;2022-10-31T12:15:27;0.60;;;0.60;;
18224;SDS011;9237;48.590;8.854;2022-10-31T12:20:56;0.60;;;0.60;;
18224;SDS011;9237;48.590;8.854;2022-10-31T12:23:38;0.70;;;0.70;;
18224;SDS011;9237;48.590;8.854;2022-10-31T12:26:16;0.60;;;0.60;;
18224;SDS011;9237;48.590;8.854;2022-10-31T12:28:53;0.70;;;0.70;;
18224;SDS011;9237;48.590;8.854;2022-10-31T12:31:36;0.67;;;0.67;;
18224;SDS011;9237;48.590;8.854;2022-10-31T12:37:25;0.70;;;0.70;;
18224;SDS011;9237;48.590;8.854;2022-10-31T12:40:09;0.60;;;0.60;;
18224;SDS011;9237;48.590;8.854;2022-10-31T12:42:54;0.70;;;0.70;;
18224;SDS011;9237;48.590;8.854;2022-10-31T12:45:37;0.60;;;0.60;;
18224;SDS011;9237;48.590;8.854;2022-10-31T12:48:27;0.60;;;0.60;;
18224;SDS011;9237;48.590;8.854;2022-10-31T12:51:15;0.70;;;0.70;;
18224;SDS011;9237;48.590;8.854;2022-10-31T12:53:55;0.60;;;0.60;;
18224;SDS011;9237;48.590;8.854;2022-10-31T12:56:35;0.60;;;0.60;;
18224;SDS011;9237;48.590;8.854;2022-10-31T12:59:14;0.60;;;0.60;;
18224;SDS011;9237;48.590;8.854;2022-10-31T13:01:46;0.60;;;0.60;;
18224;SDS011;9237;48.590;8.854;2022-10-31T13:04:17;0.60;;;0.60;;
18224;SDS011;9237;48.590;8.854;2022-10-31T13:06:54;0.60;;;0.60;;
18224;SDS011;9237;48.590;8.854;2022-10-31T13:09:27;0.60;;;0.60;;
18224;SDS011;9237;48.590;8.854;2022-10-31T13:12:00;0.60;;;0.60;;
18224;SDS011;9237;48.590;8.854;2022-10-31T13:14:32;0.60;;;0.60;;
18224;SDS011;9237;48.590;8.854;2022-10-31T13:17:03;0.60;;;0.60;;
18224;SDS011;9237;48.590;8.854;2022-10-31T13:19:31;0.60;;;0.60;;
18224;SDS011;9237;48.590;8.854;2022-10-31T13:22:04;0.60;;;0.60;;
18224;SDS011;9237;48.590;8.854;2022-10-31T13:24:35;0.60;;;0.60;;
18224;SDS011;9237;48.590;8.854;2022-10-31T13:27:09;0.60;;;0.60;;
18224;SDS011;9237;48.590;8.854;2022-10-31T13:29:42;0.60;;;0.60;;
18224;SDS011;9237;48.590;8.854;2022-10-31T13:32:16;0.60;;;0.60;;
18224;SDS011;9237;48.590;8.854;2022-10-31T13:34:44;0.60;;;0.60;;
18224;SDS011;9237;48.590;8.854;2022-10-31T13:37:15;0.70;;;0.70;;
18224;SDS011;9237;48.590;8.854;2022-10-31T13:39:51;0.60;;;0.60;;
18224;SDS011;9237;48.590;8.854;2022-10-31T13:42:37;0.70;;;0.70;;
18224;SDS011;9237;48.590;8.854;2022-10-31T13:45:14;0.70;;;0.70;;
18224;SDS011;9237;48.590;8.854;2022-10-31T13:47:42;0.70;;;0.70;;
18224;SDS011;9237;48.590;8.854;2022-10-31T13:50:19;0.60;;;0.60;;
18224;SDS011;9237;48.590;8.854;2022-10-31T13:52:48;0.70;;;0.70;;
18224;SDS011;9237;48.590;8.854;2022-10-31T13:58:04;0.60;;;0.60;;
18224;SDS011;9237;48.590;8.854;2022-10-31T14:00:46;0.60;;;0.60;;
18224;SDS011;9237;48.590;8.854;2022-10-31T14:03:25;0.55;;;0.55;;
18224;SDS011;9237;48.590;8.854;2022-10-31T14:05:53;0.60;;;0.60;;
18224;SDS011;9237;48.590;8.854;2022-10-31T14:08:22;0.57;;;0.57;;
18224;SDS011;9237;48.590;8.854;2022-10-31T14:10:50;0.50;;;0.50;;
18224;SDS011;9237;48.590;8.854;2022-10-31T14:13:20;0.50;;;0.50;;
18224;SDS011;9237;48.590;8.854;2022-10-31T14:15:56;0.40;;;0.40;;
18224;SDS011;9237;48.590;8.854;2022-10-31T14:18:28;0.40;;;0.40;;
18224;SDS011;9237;48.590;8.854;2022-10-31T14:20:57;0.40;;;0.40;;
18224;SDS011;9237;48.590;8.854;2022-10-31T14:23:37;0.45;;;0.45;;
18224;SDS011;9237;48.590;8.854;2022-10-31T14:26:18;0.40;;;0.40;;
18224;SDS011;9237;48.590;8.854;2022-10-31T14:28:57;0.40;;;0.40;;
18224;SDS011;9237;48.590;8.854;2022-10-31T14:31:37;0.40;;;0.40;;
18224;SDS011;9237;48.590;8.854;2022-10-31T14:37:12;0.60;;;0.60;;
18224;SDS011;9237;48.590;8.854;2022-10-31T14:39:50;0.50;;;0.50;;
18224;SDS011;9237;48.590;8.854;2022-10-31T14:42:29;0.50;;;0.50;;
18224;SDS011;9237;48.590;8.854;2022-10-31T14:45:10;0.50;;;0.50;;
18224;SDS011;9237;48.590;8.854;2022-10-31T14:47:55;0.50;;;0.50;;
18224;SDS011;9237;48.590;8.854;2022-10-31T14:50:41;0.50;;;0.50;;
18224;SDS011;9237;48.590;8.854;2022-10-31T14:53:12;0.50;;;0.50;;
18224;SDS011;9237;48.590;8.854;2022-10-31T14:55:44;0.60;;;0.60;;
18224;SDS011;9237;48.590;8.854;2022-10-31T14:58:16;0.60;;;0.60;;
18224;SDS011;9237;48.590;8.854;2022-10-31T15:00:46;0.60;;;0.60;;
18224;SDS011;9237;48.590;8.854;2022-10-31T15:03:15;0.60;;;0.60;;
18224;SDS011;9237;48.590;8.854;2022-10-31T15:05:46;0.60;;;0.60;;
18224;SDS011;9237;48.590;8.854;2022-10-31T15:08:26;0.60;;;0.60;;
18224;SDS011;9237;48.590;8.854;2022-10-31T15:10:56;0.60;;;0.60;;
18224;SDS011;9237;48.590;8.854;2022-10-31T15:13:23;0.63;;;0.63;;
18224;SDS011;9237;48.590;8.854;2022-10-31T15:15:51;0.63;;;0.63;;
18224;SDS011;9237;48.590;8.854;2022-10-31T15:18:22;0.60;;;0.60;;
18224;SDS011;9237;48.590;8.854;2022-10-31T15:20:52;0.60;;;0.60;;
18224;SDS011;9237;48.590;8.854;2022-10-31T15:23:21;0.70;;;0.70;;
18224;SDS011;9237;48.590;8.854;2022-10-31T15:25:50;0.60;;;0.60;;
18224;SDS011;9237;48.590;8.854;2022-10-31T15:28:24;0.60;;;0.60;;
18224;SDS011;9237;48.590;8.854;2022-10-31T15:30:51;0.60;;;0.60;;
18224;SDS011;9237;48.590;8.854;2022-10-31T15:33:22;0.60;;;0.60;;
18224;SDS011;9237;48.590;8.854;2022-10-31T15:35:54;0.60;;;0.60;;
18224;SDS011;9237;48.590;8.854;2022-10-31T15:38:23;0.60;;;0.60;;
18224;SDS011;9237;48.590;8.854;2022-10-31T15:40:51;0.70;;;0.70;;
18224;SDS011;9237;48.590;8.854;2022-10-31T15:43:21;0.60;;;0.60;;
18224;SDS011;9237;48.590;8.854;2022-10-31T15:45:48;0.70;;;0.70;;